sensor_id;sensor_type;location;lat;lon;timestamp;P1;durP1;ratioP1;P2;durP2;ratioP2
44486;SDS011;30191;50.908;6.962;2022-10-31T00:01:16;13.20;;;5.85;;
44486;SDS011;30191;50.908;6.962;2022-10-31T00:03:45;12.32;;;5.22;;
44486;SDS011;30191;50.908;6.962;2022-10-31T00:06:12;9.05;;;5.05;;
44486;SDS011;30191;50.908;6.962;2022-10-31T00:08:38;15.35;;;5.93;;
44486;SDS011;30191;50.908;6.962;2022-10-31T00:11:03;10.95;;;5.18;;
44486;SDS011;30191;50.908;6.962;2022-10-31T00:13:34;10.97;;;5.70;;
44486;SDS011;30191;50.908;6.962;2022-10-31T00:15:59;10.15;;;5.63;;
44486;SDS011;30191;50.908;6.962;2022-10-31T00:18:25;12.00;;;5.95;;
44486;SDS011;30191;50.908;6.962;2022-10-31T00:21:00;12.10;;;5.38;;
44486;SDS011;30191;50.908;6.962;2022-10-31T00:23:27;11.82;;;5.22;;
44486;SDS011;30191;50.908;6.962;2022-10-31T00:25:52;11.20;;;5.70;;
44486;SDS011;30191;50.908;6.962;2022-10-31T00:28:18;16.23;;;5.95;;
44486;SDS011;30191;50.908;6.962;2022-10-31T00:30:44;11.80;;;5.72;;
44486;SDS011;30191;50.908;6.962;2022-10-31T00:33:09;12.35;;;6.70;;
44486;SDS011;30191;50.908;6.962;2022-10-31T00:35:35;14.10;;;6.32;;
44486;SDS011;30191;50.908;6.962;2022-10-31T00:38:00;10.25;;;6.28;;
44486;SDS011;30191;50.908;6.962;2022-10-31T00:40:26;11.02;;;6.07;;
44486;SDS011;30191;50.908;6.962;2022-10-31T00:42:52;14.25;;;5.80;;
44486;SDS011;30191;50.908;6.962;2022-10-31T00:45:18;12.32;;;5.53;;
44486;SDS011;30191;50.908;6.962;2022-10-31T00:47:43;10.50;;;6.00;;
44486;SDS011;30191;50.908;6.962;2022-10-31T00:50:09;15.15;;;6.22;;
44486;SDS011;30191;50.908;6.962;2022-10-31T00:52:35;16.27;;;6.13;;
44486;SDS011;30191;50.908;6.962;2022-10-31T00:55:00;16.08;;;6.05;;
44486;SDS011;30191;50.908;6.962;2022-10-31T00:57:26;11.07;;;6.07;;
44486;SDS011;30191;50.908;6.962;2022-10-31T00:59:52;15.27;;;5.90;;
44486;SDS011;30191;50.908;6.962;2022-10-31T01:02:17;14.68;;;5.70;;
44486;SDS011;30191;50.908;6.962;2022-10-31T01:04:43;14.65;;;6.53;;
44486;SDS011;30191;50.908;6.962;2022-10-31T01:07:09;9.63;;;5.57;;
44486;SDS011;30191;50.908;6.962;2022-10-31T01:09:37;10.68;;;5.80;;
44486;SDS011;30191;50.908;6.962;2022-10-31T01:12:03;10.85;;;5.45;;
44486;SDS011;30191;50.908;6.962;2022-10-31T01:14:28;12.20;;;5.63;;
44486;SDS011;30191;50.908;6.962;2022-10-31T01:16:54;9.15;;;5.80;;
44486;SDS011;30191;50.908;6.962;2022-10-31T01:19:20;10.52;;;5.90;;
44486;SDS011;30191;50.908;6.962;2022-10-31T01:21:45;9.65;;;5.90;;
44486;SDS011;30191;50.908;6.962;2022-10-31T01:24:11;12.07;;;5.60;;
44486;SDS011;30191;50.908;6.962;2022-10-31T01:26:37;13.18;;;5.85;;
44486;SDS011;30191;50.908;6.962;2022-10-31T01:29:04;12.82;;;5.60;;
44486;SDS011;30191;50.908;6.962;2022-10-31T01:31:34;10.15;;;5.97;;
44486;SDS011;30191;50.908;6.962;2022-10-31T01:34:01;12.75;;;5.80;;
44486;SDS011;30191;50.908;6.962;2022-10-31T01:36:28;12.93;;;6.25;;
44486;SDS011;30191;50.908;6.962;2022-10-31T01:39:00;10.40;;;5.65;;
44486;SDS011;30191;50.908;6.962;2022-10-31T01:41:30;12.32;;;6.13;;
44486;SDS011;30191;50.908;6.962;2022-10-31T01:43:59;13.45;;;6.07;;
44486;SDS011;30191;50.908;6.962;2022-10-31T01:46:31;12.55;;;6.30;;
44486;SDS011;30191;50.908;6.962;2022-10-31T01:49:01;7.88;;;5.60;;
44486;SDS011;30191;50.908;6.962;2022-10-31T01:52:32;10.85;;;6.22;;
44486;SDS011;30191;50.908;6.962;2022-10-31T01:54:51;12.55;;;6.10;;
44486;SDS011;30191;50.908;6.962;2022-10-31T01:57:22;10.98;;;6.25;;
44486;SDS011;30191;50.908;6.962;2022-10-31T01:59:51;10.43;;;6.28;;
44486;SDS011;30191;50.908;6.962;2022-10-31T02:04:46;14.20;;;5.97;;
44486;SDS011;30191;50.908;6.962;2022-10-31T02:07:22;11.02;;;5.70;;
44486;SDS011;30191;50.908;6.962;2022-10-31T02:09:51;12.32;;;6.00;;
44486;SDS011;30191;50.908;6.962;2022-10-31T02:12:20;12.20;;;5.80;;
44486;SDS011;30191;50.908;6.962;2022-10-31T02:14:46;14.38;;;5.63;;
44486;SDS011;30191;50.908;6.962;2022-10-31T02:17:12;13.40;;;5.80;;
44486;SDS011;30191;50.908;6.962;2022-10-31T02:30:14;9.30;;;5.55;;
44486;SDS011;30191;50.908;6.962;2022-10-31T02:32:49;11.52;;;5.75;;
44486;SDS011;30191;50.908;6.962;2022-10-31T02:36:22;11.98;;;5.80;;
44486;SDS011;30191;50.908;6.962;2022-10-31T02:38:34;9.30;;;5.82;;
44486;SDS011;30191;50.908;6.962;2022-10-31T02:44:02;9.18;;;5.35;;
44486;SDS011;30191;50.908;6.962;2022-10-31T02:46:35;8.25;;;5.28;;
44486;SDS011;30191;50.908;6.962;2022-10-31T02:49:31;13.50;;;6.00;;
44486;SDS011;30191;50.908;6.962;2022-10-31T02:52:00;14.70;;;6.07;;
44486;SDS011;30191;50.908;6.962;2022-10-31T02:54:26;10.35;;;5.95;;
44486;SDS011;30191;50.908;6.962;2022-10-31T02:57:03;9.98;;;5.82;;
44486;SDS011;30191;50.908;6.962;2022-10-31T02:59:32;11.18;;;5.57;;
44486;SDS011;30191;50.908;6.962;2022-10-31T03:02:04;13.70;;;6.38;;
44486;SDS011;30191;50.908;6.962;2022-10-31T03:15:41;15.93;;;5.72;;
44486;SDS011;30191;50.908;6.962;2022-10-31T03:21:18;10.90;;;5.82;;
44486;SDS011;30191;50.908;6.962;2022-10-31T03:23:48;10.90;;;5.88;;
44486;SDS011;30191;50.908;6.962;2022-10-31T03:26:16;10.75;;;5.72;;
44486;SDS011;30191;50.908;6.962;2022-10-31T03:28:46;10.35;;;6.10;;
44486;SDS011;30191;50.908;6.962;2022-10-31T03:31:20;13.13;;;5.55;;
44486;SDS011;30191;50.908;6.962;2022-10-31T03:33:50;10.55;;;5.47;;
44486;SDS011;30191;50.908;6.962;2022-10-31T03:36:17;14.15;;;5.63;;
44486;SDS011;30191;50.908;6.962;2022-10-31T03:38:44;8.90;;;5.45;;
44486;SDS011;30191;50.908;6.962;2022-10-31T03:41:13;8.88;;;5.60;;
44486;SDS011;30191;50.908;6.962;2022-10-31T03:43:46;12.07;;;6.07;;
44486;SDS011;30191;50.908;6.962;2022-10-31T03:46:17;15.65;;;5.70;;
44486;SDS011;30191;50.908;6.962;2022-10-31T03:48:43;13.48;;;5.30;;
44486;SDS011;30191;50.908;6.962;2022-10-31T03:54:07;14.57;;;5.85;;
44486;SDS011;30191;50.908;6.962;2022-10-31T03:56:49;10.73;;;5.40;;
44486;SDS011;30191;50.908;6.962;2022-10-31T03:59:24;9.40;;;5.07;;
44486;SDS011;30191;50.908;6.962;2022-10-31T04:01:55;21.85;;;5.70;;
44486;SDS011;30191;50.908;6.962;2022-10-31T04:04:26;12.32;;;5.53;;
44486;SDS011;30191;50.908;6.962;2022-10-31T04:06:53;10.88;;;5.05;;
44486;SDS011;30191;50.908;6.962;2022-10-31T04:09:22;17.02;;;5.40;;
44486;SDS011;30191;50.908;6.962;2022-10-31T04:11:51;12.57;;;5.43;;
44486;SDS011;30191;50.908;6.962;2022-10-31T04:14:19;9.45;;;5.20;;
44486;SDS011;30191;50.908;6.962;2022-10-31T04:16:47;11.95;;;5.13;;
44486;SDS011;30191;50.908;6.962;2022-10-31T04:19:12;11.15;;;5.60;;
44486;SDS011;30191;50.908;6.962;2022-10-31T04:21:39;13.40;;;5.25;;
44486;SDS011;30191;50.908;6.962;2022-10-31T04:24:08;10.27;;;5.10;;
44486;SDS011;30191;50.908;6.962;2022-10-31T04:26:34;10.00;;;5.47;;
44486;SDS011;30191;50.908;6.962;2022-10-31T04:29:00;10.65;;;4.95;;
44486;SDS011;30191;50.908;6.962;2022-10-31T04:31:26;9.55;;;5.00;;
44486;SDS011;30191;50.908;6.962;2022-10-31T04:33:52;9.10;;;5.75;;
44486;SDS011;30191;50.908;6.962;2022-10-31T04:36:17;7.95;;;5.13;;
44486;SDS011;30191;50.908;6.962;2022-10-31T04:38:43;12.68;;;5.25;;
44486;SDS011;30191;50.908;6.962;2022-10-31T04:41:08;14.15;;;5.03;;
44486;SDS011;30191;50.908;6.962;2022-10-31T04:43:34;10.48;;;5.38;;
44486;SDS011;30191;50.908;6.962;2022-10-31T04:46:00;13.20;;;5.57;;
44486;SDS011;30191;50.908;6.962;2022-10-31T04:48:26;10.05;;;5.72;;
44486;SDS011;30191;50.908;6.962;2022-10-31T04:50:51;11.38;;;5.53;;
44486;SDS011;30191;50.908;6.962;2022-10-31T04:53:17;14.50;;;5.57;;
44486;SDS011;30191;50.908;6.962;2022-10-31T04:55:43;12.27;;;5.78;;
44486;SDS011;30191;50.908;6.962;2022-10-31T04:58:08;9.60;;;5.00;;
44486;SDS011;30191;50.908;6.962;2022-10-31T05:00:34;12.57;;;5.18;;
44486;SDS011;30191;50.908;6.962;2022-10-31T05:03:00;9.07;;;5.03;;
44486;SDS011;30191;50.908;6.962;2022-10-31T05:05:27;9.57;;;5.22;;
44486;SDS011;30191;50.908;6.962;2022-10-31T05:07:55;12.00;;;5.63;;
44486;SDS011;30191;50.908;6.962;2022-10-31T05:10:22;9.70;;;5.55;;
44486;SDS011;30191;50.908;6.962;2022-10-31T05:12:50;16.52;;;5.63;;
44486;SDS011;30191;50.908;6.962;2022-10-31T05:15:18;12.32;;;5.40;;
44486;SDS011;30191;50.908;6.962;2022-10-31T05:17:46;16.48;;;5.65;;
44486;SDS011;30191;50.908;6.962;2022-10-31T05:20:12;8.98;;;5.20;;
44486;SDS011;30191;50.908;6.962;2022-10-31T05:22:45;8.80;;;4.85;;
44486;SDS011;30191;50.908;6.962;2022-10-31T05:25:12;14.73;;;5.40;;
44486;SDS011;30191;50.908;6.962;2022-10-31T05:27:41;14.02;;;4.97;;
44486;SDS011;30191;50.908;6.962;2022-10-31T05:30:11;10.90;;;4.68;;
44486;SDS011;30191;50.908;6.962;2022-10-31T05:32:40;9.32;;;5.05;;
44486;SDS011;30191;50.908;6.962;2022-10-31T05:35:11;8.63;;;5.65;;
44486;SDS011;30191;50.908;6.962;2022-10-31T05:37:39;8.68;;;4.95;;
44486;SDS011;30191;50.908;6.962;2022-10-31T05:40:06;13.13;;;5.13;;
44486;SDS011;30191;50.908;6.962;2022-10-31T05:42:33;11.25;;;5.30;;
44486;SDS011;30191;50.908;6.962;2022-10-31T05:44:59;11.25;;;5.32;;
44486;SDS011;30191;50.908;6.962;2022-10-31T05:47:24;11.40;;;5.15;;
44486;SDS011;30191;50.908;6.962;2022-10-31T05:49:50;9.60;;;5.40;;
44486;SDS011;30191;50.908;6.962;2022-10-31T05:52:16;14.80;;;5.82;;
44486;SDS011;30191;50.908;6.962;2022-10-31T05:54:42;16.17;;;5.57;;
44486;SDS011;30191;50.908;6.962;2022-10-31T05:57:08;12.38;;;5.40;;
44486;SDS011;30191;50.908;6.962;2022-10-31T05:59:34;11.80;;;5.55;;
44486;SDS011;30191;50.908;6.962;2022-10-31T06:02:00;8.68;;;5.18;;
44486;SDS011;30191;50.908;6.962;2022-10-31T06:04:25;13.30;;;5.50;;
44486;SDS011;30191;50.908;6.962;2022-10-31T06:06:51;13.52;;;5.93;;
44486;SDS011;30191;50.908;6.962;2022-10-31T06:09:17;12.43;;;5.47;;
44486;SDS011;30191;50.908;6.962;2022-10-31T06:11:42;15.00;;;5.55;;
44486;SDS011;30191;50.908;6.962;2022-10-31T06:14:08;12.07;;;5.75;;
44486;SDS011;30191;50.908;6.962;2022-10-31T06:16:34;10.50;;;5.60;;
44486;SDS011;30191;50.908;6.962;2022-10-31T06:18:59;12.30;;;5.75;;
44486;SDS011;30191;50.908;6.962;2022-10-31T06:21:25;11.05;;;5.72;;
44486;SDS011;30191;50.908;6.962;2022-10-31T06:23:51;9.80;;;5.25;;
44486;SDS011;30191;50.908;6.962;2022-10-31T06:26:17;9.88;;;5.68;;
44486;SDS011;30191;50.908;6.962;2022-10-31T06:28:42;10.38;;;5.53;;
44486;SDS011;30191;50.908;6.962;2022-10-31T06:31:08;10.68;;;5.20;;
44486;SDS011;30191;50.908;6.962;2022-10-31T06:33:33;12.88;;;5.55;;
44486;SDS011;30191;50.908;6.962;2022-10-31T06:36:00;13.77;;;5.50;;
44486;SDS011;30191;50.908;6.962;2022-10-31T06:38:26;9.45;;;5.60;;
44486;SDS011;30191;50.908;6.962;2022-10-31T06:40:53;12.30;;;6.00;;
44486;SDS011;30191;50.908;6.962;2022-10-31T06:43:19;13.63;;;5.78;;
44486;SDS011;30191;50.908;6.962;2022-10-31T06:45:45;11.70;;;5.57;;
44486;SDS011;30191;50.908;6.962;2022-10-31T06:48:11;11.10;;;5.53;;
44486;SDS011;30191;50.908;6.962;2022-10-31T06:50:36;11.93;;;5.32;;
44486;SDS011;30191;50.908;6.962;2022-10-31T06:53:02;9.27;;;5.45;;
44486;SDS011;30191;50.908;6.962;2022-10-31T06:55:28;13.77;;;5.45;;
44486;SDS011;30191;50.908;6.962;2022-10-31T06:57:57;13.00;;;5.57;;
44486;SDS011;30191;50.908;6.962;2022-10-31T07:00:25;10.88;;;5.68;;
44486;SDS011;30191;50.908;6.962;2022-10-31T07:02:56;11.43;;;5.38;;
44486;SDS011;30191;50.908;6.962;2022-10-31T07:05:26;9.82;;;5.20;;
44486;SDS011;30191;50.908;6.962;2022-10-31T07:07:56;13.45;;;5.78;;
44486;SDS011;30191;50.908;6.962;2022-10-31T07:10:27;12.73;;;5.82;;
44486;SDS011;30191;50.908;6.962;2022-10-31T07:13:00;9.15;;;5.60;;
44486;SDS011;30191;50.908;6.962;2022-10-31T07:15:32;10.85;;;5.53;;
44486;SDS011;30191;50.908;6.962;2022-10-31T07:18:02;11.85;;;6.20;;
44486;SDS011;30191;50.908;6.962;2022-10-31T07:20:30;12.88;;;5.97;;
44486;SDS011;30191;50.908;6.962;2022-10-31T07:22:56;13.07;;;6.13;;
44486;SDS011;30191;50.908;6.962;2022-10-31T07:25:22;12.48;;;5.78;;
44486;SDS011;30191;50.908;6.962;2022-10-31T07:27:48;7.90;;;5.40;;
44486;SDS011;30191;50.908;6.962;2022-10-31T07:30:14;12.60;;;5.70;;
44486;SDS011;30191;50.908;6.962;2022-10-31T07:32:51;16.90;;;6.70;;
44486;SDS011;30191;50.908;6.962;2022-10-31T07:35:18;13.43;;;5.82;;
44486;SDS011;30191;50.908;6.962;2022-10-31T07:37:45;14.65;;;5.85;;
44486;SDS011;30191;50.908;6.962;2022-10-31T07:40:11;9.95;;;5.60;;
44486;SDS011;30191;50.908;6.962;2022-10-31T07:42:37;11.25;;;5.97;;
44486;SDS011;30191;50.908;6.962;2022-10-31T07:45:04;10.43;;;5.80;;
44486;SDS011;30191;50.908;6.962;2022-10-31T07:47:49;12.52;;;6.28;;
44486;SDS011;30191;50.908;6.962;2022-10-31T07:50:20;13.45;;;5.60;;
44486;SDS011;30191;50.908;6.962;2022-10-31T07:53:03;10.52;;;5.78;;
44486;SDS011;30191;50.908;6.962;2022-10-31T07:55:30;11.05;;;5.40;;
44486;SDS011;30191;50.908;6.962;2022-10-31T07:57:57;10.27;;;5.47;;
44486;SDS011;30191;50.908;6.962;2022-10-31T08:00:29;14.23;;;5.50;;
44486;SDS011;30191;50.908;6.962;2022-10-31T08:02:57;12.25;;;6.07;;
44486;SDS011;30191;50.908;6.962;2022-10-31T08:05:30;9.15;;;5.60;;
44486;SDS011;30191;50.908;6.962;2022-10-31T08:07:56;11.02;;;6.25;;
44486;SDS011;30191;50.908;6.962;2022-10-31T08:10:23;11.88;;;5.65;;
44486;SDS011;30191;50.908;6.962;2022-10-31T08:15:44;11.70;;;5.75;;
44486;SDS011;30191;50.908;6.962;2022-10-31T08:18:14;10.00;;;5.77;;
44486;SDS011;30191;50.908;6.962;2022-10-31T08:20:41;18.73;;;6.45;;
44486;SDS011;30191;50.908;6.962;2022-10-31T08:23:08;10.00;;;6.13;;
44486;SDS011;30191;50.908;6.962;2022-10-31T08:25:36;14.45;;;6.53;;
44486;SDS011;30191;50.908;6.962;2022-10-31T08:28:02;12.10;;;5.68;;
44486;SDS011;30191;50.908;6.962;2022-10-31T08:30:29;15.77;;;6.75;;
44486;SDS011;30191;50.908;6.962;2022-10-31T08:35:41;8.48;;;6.03;;
44486;SDS011;30191;50.908;6.962;2022-10-31T08:38:08;14.10;;;6.15;;
44486;SDS011;30191;50.908;6.962;2022-10-31T08:40:35;13.73;;;6.00;;
44486;SDS011;30191;50.908;6.962;2022-10-31T08:45:37;12.93;;;6.90;;
44486;SDS011;30191;50.908;6.962;2022-10-31T08:48:04;8.45;;;5.43;;
44486;SDS011;30191;50.908;6.962;2022-10-31T08:50:32;13.75;;;5.47;;
44486;SDS011;30191;50.908;6.962;2022-10-31T08:53:00;14.52;;;5.40;;
44486;SDS011;30191;50.908;6.962;2022-10-31T08:55:29;12.53;;;5.77;;
44486;SDS011;30191;50.908;6.962;2022-10-31T08:57:56;11.60;;;5.57;;
44486;SDS011;30191;50.908;6.962;2022-10-31T09:00:22;13.02;;;5.50;;
44486;SDS011;30191;50.908;6.962;2022-10-31T09:02:54;15.82;;;6.00;;
44486;SDS011;30191;50.908;6.962;2022-10-31T09:05:20;9.43;;;5.78;;
44486;SDS011;30191;50.908;6.962;2022-10-31T09:07:46;12.90;;;6.40;;
44486;SDS011;30191;50.908;6.962;2022-10-31T09:10:12;14.98;;;6.10;;
44486;SDS011;30191;50.908;6.962;2022-10-31T09:12:37;11.38;;;5.57;;
44486;SDS011;30191;50.908;6.962;2022-10-31T09:15:03;11.38;;;5.50;;
44486;SDS011;30191;50.908;6.962;2022-10-31T09:17:31;9.18;;;6.28;;
44486;SDS011;30191;50.908;6.962;2022-10-31T09:19:57;10.18;;;5.95;;
44486;SDS011;30191;50.908;6.962;2022-10-31T09:22:22;14.77;;;6.03;;
44486;SDS011;30191;50.908;6.962;2022-10-31T09:24:48;21.08;;;5.97;;
44486;SDS011;30191;50.908;6.962;2022-10-31T09:27:14;13.93;;;5.97;;
44486;SDS011;30191;50.908;6.962;2022-10-31T09:29:39;10.77;;;5.60;;
44486;SDS011;30191;50.908;6.962;2022-10-31T09:32:05;16.27;;;6.15;;
44486;SDS011;30191;50.908;6.962;2022-10-31T09:34:31;12.32;;;5.63;;
44486;SDS011;30191;50.908;6.962;2022-10-31T09:36:57;12.88;;;5.50;;
44486;SDS011;30191;50.908;6.962;2022-10-31T09:39:22;13.70;;;6.50;;
44486;SDS011;30191;50.908;6.962;2022-10-31T09:47:29;11.75;;;6.88;;
44486;SDS011;30191;50.908;6.962;2022-10-31T09:52:50;17.35;;;8.90;;
44486;SDS011;30191;50.908;6.962;2022-10-31T09:56:07;13.32;;;5.90;;
44486;SDS011;30191;50.908;6.962;2022-10-31T09:58:27;14.38;;;6.50;;
44486;SDS011;30191;50.908;6.962;2022-10-31T10:00:56;11.98;;;6.28;;
44486;SDS011;30191;50.908;6.962;2022-10-31T10:06:19;20.95;;;8.95;;
44486;SDS011;30191;50.908;6.962;2022-10-31T10:08:48;19.88;;;10.02;;
44486;SDS011;30191;50.908;6.962;2022-10-31T10:14:08;19.58;;;9.60;;
44486;SDS011;30191;50.908;6.962;2022-10-31T10:24:17;10.23;;;5.72;;
44486;SDS011;30191;50.908;6.962;2022-10-31T10:27:28;13.15;;;5.80;;
44486;SDS011;30191;50.908;6.962;2022-10-31T10:29:50;10.57;;;6.30;;
44486;SDS011;30191;50.908;6.962;2022-10-31T10:32:26;9.65;;;5.55;;
44486;SDS011;30191;50.908;6.962;2022-10-31T10:34:58;14.50;;;6.32;;
44486;SDS011;30191;50.908;6.962;2022-10-31T10:37:48;12.32;;;5.65;;
44486;SDS011;30191;50.908;6.962;2022-10-31T10:40:17;11.20;;;5.78;;
44486;SDS011;30191;50.908;6.962;2022-10-31T10:43:35;15.32;;;6.00;;
44486;SDS011;30191;50.908;6.962;2022-10-31T10:45:44;11.25;;;5.72;;
44486;SDS011;30191;50.908;6.962;2022-10-31T10:48:44;17.38;;;6.00;;
44486;SDS011;30191;50.908;6.962;2022-10-31T10:51:21;10.23;;;4.82;;
44486;SDS011;30191;50.908;6.962;2022-10-31T10:54:03;10.27;;;5.28;;
44486;SDS011;30191;50.908;6.962;2022-10-31T10:59:43;10.05;;;4.90;;
44486;SDS011;30191;50.908;6.962;2022-10-31T11:02:19;11.02;;;5.28;;
44486;SDS011;30191;50.908;6.962;2022-10-31T11:04:49;11.18;;;5.05;;
44486;SDS011;30191;50.908;6.962;2022-10-31T11:07:19;11.10;;;5.40;;
44486;SDS011;30191;50.908;6.962;2022-10-31T11:09:45;10.82;;;4.93;;
44486;SDS011;30191;50.908;6.962;2022-10-31T11:12:58;21.65;;;5.05;;
44486;SDS011;30191;50.908;6.962;2022-10-31T11:15:03;11.18;;;4.85;;
44486;SDS011;30191;50.908;6.962;2022-10-31T11:17:46;10.68;;;5.22;;
44486;SDS011;30191;50.908;6.962;2022-10-31T11:22:44;10.40;;;5.00;;
44486;SDS011;30191;50.908;6.962;2022-10-31T11:25:23;10.23;;;5.30;;
44486;SDS011;30191;50.908;6.962;2022-10-31T11:28:04;21.08;;;10.77;;
44486;SDS011;30191;50.908;6.962;2022-10-31T11:30:43;15.65;;;5.90;;
44486;SDS011;30191;50.908;6.962;2022-10-31T11:33:17;13.77;;;6.00;;
44486;SDS011;30191;50.908;6.962;2022-10-31T11:35:49;10.25;;;5.30;;
44486;SDS011;30191;50.908;6.962;2022-10-31T11:38:16;19.85;;;5.22;;
44486;SDS011;30191;50.908;6.962;2022-10-31T11:40:51;10.82;;;5.28;;
44486;SDS011;30191;50.908;6.962;2022-10-31T11:43:27;11.95;;;5.72;;
44486;SDS011;30191;50.908;6.962;2022-10-31T11:45:53;11.88;;;5.03;;
44486;SDS011;30191;50.908;6.962;2022-10-31T11:48:20;9.95;;;5.80;;
44486;SDS011;30191;50.908;6.962;2022-10-31T11:50:52;12.05;;;5.35;;
44486;SDS011;30191;50.908;6.962;2022-10-31T11:53:28;14.13;;;4.85;;
44486;SDS011;30191;50.908;6.962;2022-10-31T11:56:01;12.27;;;4.82;;
44486;SDS011;30191;50.908;6.962;2022-10-31T11:58:35;12.40;;;5.00;;
44486;SDS011;30191;50.908;6.962;2022-10-31T12:01:01;10.00;;;4.40;;
44486;SDS011;30191;50.908;6.962;2022-10-31T12:03:33;13.27;;;4.32;;
44486;SDS011;30191;50.908;6.962;2022-10-31T12:08:52;10.52;;;4.13;;
44486;SDS011;30191;50.908;6.962;2022-10-31T12:16:38;9.38;;;4.13;;
44486;SDS011;30191;50.908;6.962;2022-10-31T12:30:25;10.50;;;3.95;;
44486;SDS011;30191;50.908;6.962;2022-10-31T12:38:53;7.25;;;3.80;;
44486;SDS011;30191;50.908;6.962;2022-10-31T12:47:10;12.32;;;4.00;;
44486;SDS011;30191;50.908;6.962;2022-10-31T12:57:44;8.50;;;3.88;;
44486;SDS011;30191;50.908;6.962;2022-10-31T13:00:15;8.18;;;3.78;;
44486;SDS011;30191;50.908;6.962;2022-10-31T13:08:17;10.02;;;4.07;;
44486;SDS011;30191;50.908;6.962;2022-10-31T13:14:13;12.70;;;4.07;;
44486;SDS011;30191;50.908;6.962;2022-10-31T13:16:39;9.80;;;3.50;;
44486;SDS011;30191;50.908;6.962;2022-10-31T13:21:47;16.00;;;4.25;;
44486;SDS011;30191;50.908;6.962;2022-10-31T13:24:46;9.02;;;3.83;;
44486;SDS011;30191;50.908;6.962;2022-10-31T13:27:20;8.50;;;3.83;;
44486;SDS011;30191;50.908;6.962;2022-10-31T13:32:22;7.00;;;4.18;;
44486;SDS011;30191;50.908;6.962;2022-10-31T13:34:50;12.95;;;3.72;;
44486;SDS011;30191;50.908;6.962;2022-10-31T13:37:30;11.23;;;4.50;;
44486;SDS011;30191;50.908;6.962;2022-10-31T13:45:24;8.63;;;4.20;;
44486;SDS011;30191;50.908;6.962;2022-10-31T13:50:41;10.10;;;3.30;;
44486;SDS011;30191;50.908;6.962;2022-10-31T13:58:43;9.80;;;3.78;;
44486;SDS011;30191;50.908;6.962;2022-10-31T14:03:40;8.65;;;3.90;;
44486;SDS011;30191;50.908;6.962;2022-10-31T14:06:09;9.98;;;3.78;;
44486;SDS011;30191;50.908;6.962;2022-10-31T14:08:37;12.18;;;3.70;;
44486;SDS011;30191;50.908;6.962;2022-10-31T14:11:05;12.20;;;4.10;;
44486;SDS011;30191;50.908;6.962;2022-10-31T14:13:51;10.55;;;4.10;;
44486;SDS011;30191;50.908;6.962;2022-10-31T14:16:19;8.68;;;3.65;;
44486;SDS011;30191;50.908;6.962;2022-10-31T14:18:50;12.20;;;3.90;;
44486;SDS011;30191;50.908;6.962;2022-10-31T14:23:49;8.93;;;3.70;;
44486;SDS011;30191;50.908;6.962;2022-10-31T14:28:51;12.40;;;3.75;;
44486;SDS011;30191;50.908;6.962;2022-10-31T14:31:33;10.85;;;4.35;;
44486;SDS011;30191;50.908;6.962;2022-10-31T14:34:27;11.40;;;3.80;;
44486;SDS011;30191;50.908;6.962;2022-10-31T14:39:26;12.02;;;3.40;;
44486;SDS011;30191;50.908;6.962;2022-10-31T14:50:49;11.40;;;3.83;;
44486;SDS011;30191;50.908;6.962;2022-10-31T14:55:43;12.38;;;3.65;;
44486;SDS011;30191;50.908;6.962;2022-10-31T14:58:13;12.20;;;3.72;;
44486;SDS011;30191;50.908;6.962;2022-10-31T15:00:43;7.40;;;3.55;;
44486;SDS011;30191;50.908;6.962;2022-10-31T15:05:48;8.07;;;3.42;;
44486;SDS011;30191;50.908;6.962;2022-10-31T15:08:37;9.40;;;3.30;;
44486;SDS011;30191;50.908;6.962;2022-10-31T15:13:47;9.90;;;3.22;;
44486;SDS011;30191;50.908;6.962;2022-10-31T15:16:24;20.60;;;3.70;;
44486;SDS011;30191;50.908;6.962;2022-10-31T15:19:12;10.15;;;3.53;;
44486;SDS011;30191;50.908;6.962;2022-10-31T15:21:42;7.35;;;3.30;;
44486;SDS011;30191;50.908;6.962;2022-10-31T15:24:12;8.23;;;3.30;;
44486;SDS011;30191;50.908;6.962;2022-10-31T15:29:14;14.68;;;3.45;;
44486;SDS011;30191;50.908;6.962;2022-10-31T15:34:45;9.30;;;3.63;;
44486;SDS011;30191;50.908;6.962;2022-10-31T15:37:15;10.65;;;3.53;;
44486;SDS011;30191;50.908;6.962;2022-10-31T15:42:17;10.30;;;3.33;;
44486;SDS011;30191;50.908;6.962;2022-10-31T15:45:05;8.57;;;3.40;;
44486;SDS011;30191;50.908;6.962;2022-10-31T15:47:34;12.75;;;4.10;;
44486;SDS011;30191;50.908;6.962;2022-10-31T15:50:01;7.25;;;3.28;;
44486;SDS011;30191;50.908;6.962;2022-10-31T15:52:31;11.50;;;3.30;;
44486;SDS011;30191;50.908;6.962;2022-10-31T15:55:16;10.90;;;3.55;;
44486;SDS011;30191;50.908;6.962;2022-10-31T15:57:47;10.95;;;3.70;;
44486;SDS011;30191;50.908;6.962;2022-10-31T16:05:50;13.40;;;3.50;;
44486;SDS011;30191;50.908;6.962;2022-10-31T16:13:32;10.27;;;3.88;;
44486;SDS011;30191;50.908;6.962;2022-10-31T16:16:01;9.93;;;3.28;;
44486;SDS011;30191;50.908;6.962;2022-10-31T16:18:29;12.25;;;3.67;;
44486;SDS011;30191;50.908;6.962;2022-10-31T16:21:02;8.05;;;3.55;;
44486;SDS011;30191;50.908;6.962;2022-10-31T16:23:28;11.35;;;3.33;;
44486;SDS011;30191;50.908;6.962;2022-10-31T16:25:54;8.55;;;3.72;;
44486;SDS011;30191;50.908;6.962;2022-10-31T16:28:26;10.93;;;3.60;;
44486;SDS011;30191;50.908;6.962;2022-10-31T16:30:55;15.13;;;3.80;;
44486;SDS011;30191;50.908;6.962;2022-10-31T16:35:59;10.10;;;3.60;;
44486;SDS011;30191;50.908;6.962;2022-10-31T16:38:27;11.50;;;3.97;;
44486;SDS011;30191;50.908;6.962;2022-10-31T16:40:52;7.80;;;3.72;;
44486;SDS011;30191;50.908;6.962;2022-10-31T16:43:19;11.55;;;4.13;;
44486;SDS011;30191;50.908;6.962;2022-10-31T16:45:49;11.95;;;3.88;;
44486;SDS011;30191;50.908;6.962;2022-10-31T16:48:17;10.07;;;3.95;;
44486;SDS011;30191;50.908;6.962;2022-10-31T16:50:45;12.07;;;4.20;;
44486;SDS011;30191;50.908;6.962;2022-10-31T16:53:12;9.45;;;4.25;;
44486;SDS011;30191;50.908;6.962;2022-10-31T16:58:22;12.88;;;4.10;;
44486;SDS011;30191;50.908;6.962;2022-10-31T17:00:52;12.98;;;4.53;;
44486;SDS011;30191;50.908;6.962;2022-10-31T17:03:19;15.82;;;4.20;;
44486;SDS011;30191;50.908;6.962;2022-10-31T17:05:45;11.68;;;4.20;;
44486;SDS011;30191;50.908;6.962;2022-10-31T17:08:10;9.10;;;3.50;;
44486;SDS011;30191;50.908;6.962;2022-10-31T17:10:36;10.90;;;3.92;;
44486;SDS011;30191;50.908;6.962;2022-10-31T17:13:03;10.88;;;4.03;;
44486;SDS011;30191;50.908;6.962;2022-10-31T17:15:37;13.23;;;4.60;;
44486;SDS011;30191;50.908;6.962;2022-10-31T17:18:06;19.88;;;4.40;;
44486;SDS011;30191;50.908;6.962;2022-10-31T17:20:31;12.43;;;4.40;;
44486;SDS011;30191;50.908;6.962;2022-10-31T17:22:58;12.05;;;4.38;;
44486;SDS011;30191;50.908;6.962;2022-10-31T17:25:25;15.43;;;4.20;;
44486;SDS011;30191;50.908;6.962;2022-10-31T17:27:52;9.88;;;3.63;;
44486;SDS011;30191;50.908;6.962;2022-10-31T17:30:18;10.15;;;4.03;;
44486;SDS011;30191;50.908;6.962;2022-10-31T17:32:46;12.60;;;3.97;;
44486;SDS011;30191;50.908;6.962;2022-10-31T17:35:13;9.93;;;3.97;;
44486;SDS011;30191;50.908;6.962;2022-10-31T17:37:40;10.07;;;3.78;;
44486;SDS011;30191;50.908;6.962;2022-10-31T17:40:07;9.27;;;3.97;;
44486;SDS011;30191;50.908;6.962;2022-10-31T17:42:34;13.25;;;4.45;;
44486;SDS011;30191;50.908;6.962;2022-10-31T17:45:00;10.23;;;4.25;;
44486;SDS011;30191;50.908;6.962;2022-10-31T17:47:25;10.93;;;3.70;;
44486;SDS011;30191;50.908;6.962;2022-10-31T17:49:51;9.65;;;4.28;;
44486;SDS011;30191;50.908;6.962;2022-10-31T17:52:17;11.27;;;4.90;;
44486;SDS011;30191;50.908;6.962;2022-10-31T17:54:44;15.75;;;4.28;;
44486;SDS011;30191;50.908;6.962;2022-10-31T17:57:09;11.32;;;4.15;;
44486;SDS011;30191;50.908;6.962;2022-10-31T17:59:35;9.70;;;3.65;;